Time;durP1;ratioP1;P1;durP2;ratioP2;P2;SDS_P1;SDS_P2;PMS_P1;PMS_P2;Temp;Humidity;BMP_temperature;BMP_pressure;BME280_temperature;BME280_humidity;BME280_pressure;Samples;Min_cycle;Max_cycle;Signal;HPM_P1;HPM_P2
2023/04/29 00:01:51;;;;;;;48.50;28.50;;;9.60;99.90;;;;;;4993469;28;20046;-83
2023/04/29 00:04:17;;;;;;;46.17;28.67;;;9.60;99.90;;;;;;4992250;28;20061;-84
2023/04/29 00:06:43;;;;;;;46.42;28.40;;;9.60;99.90;;;;;;4993651;28;20038;-83
2023/04/29 00:09:08;;;;;;;49.75;29.05;;;9.60;99.90;;;;;;4992223;28;20494;-83
2023/04/29 00:11:34;;;;;;;44.65;27.15;;;9.60;99.90;;;;;;4993294;28;20453;-84
2023/04/29 00:14:00;;;;;;;43.88;27.77;;;9.60;99.90;;;;;;4992956;28;20117;-83
2023/04/29 00:16:25;;;;;;;45.08;26.77;;;9.50;99.90;;;;;;4979784;28;20074;-83
2023/04/29 00:18:51;;;;;;;45.70;27.15;;;9.50;99.90;;;;;;4975019;28;20141;-83
2023/04/29 00:21:17;;;;;;;46.27;26.60;;;9.50;99.90;;;;;;4972442;28;20405;-83
2023/04/29 00:23:43;;;;;;;44.72;26.50;;;9.50;99.90;;;;;;4974951;28;20443;-83
2023/04/29 00:26:08;;;;;;;43.88;26.60;;;9.50;99.90;;;;;;4973840;28;20051;-83
2023/04/29 00:28:34;;;;;;;41.65;25.45;;;9.50;99.90;;;;;;4972732;28;20392;-83
2023/04/29 00:30:59;;;;;;;45.00;27.13;;;9.40;99.90;;;;;;4979142;28;20030;-84
2023/04/29 00:33:26;;;;;;;46.15;26.73;;;9.40;99.90;;;;;;4980700;28;20466;-83
2023/04/29 00:35:51;;;;;;;42.50;26.38;;;9.50;99.90;;;;;;4973152;28;20093;-83
2023/04/29 00:38:17;;;;;;;45.17;27.60;;;9.40;99.90;;;;;;4979756;28;20050;-84
2023/04/29 00:40:43;;;;;;;38.17;23.85;;;9.40;99.90;;;;;;4986604;28;20061;-83
2023/04/29 00:43:09;;;;;;;43.08;25.58;;;9.40;99.90;;;;;;4974145;28;20559;-84
2023/04/29 00:45:34;;;;;;;41.97;25.92;;;9.90;99.90;;;;;;4973113;28;20129;-83
2023/04/29 00:48:00;;;;;;;42.08;25.50;;;9.30;99.90;;;;;;4972351;28;20376;-83
2023/04/29 00:50:26;;;;;;;40.85;24.75;;;9.30;99.90;;;;;;4972350;28;20425;-83
2023/04/29 00:52:52;;;;;;;41.42;25.98;;;9.30;99.90;;;;;;4973301;28;20077;-83
2023/04/29 00:55:18;;;;;;;44.30;24.67;;;9.30;99.90;;;;;;4973237;28;20656;-84
2023/04/29 00:57:47;;;;;;;43.40;26.25;;;9.30;99.90;;;;;;4973109;28;20046;-83
2023/04/29 01:00:15;;;;;;;47.17;26.27;;;9.30;99.90;;;;;;4973611;28;20507;-83
2023/04/29 01:02:41;;;;;;;49.40;27.30;;;9.40;99.90;;;;;;4973384;28;20065;-84
2023/04/29 01:05:06;;;;;;;46.08;27.33;;;10.20;99.90;;;;;;4973548;28;20484;-83
2023/04/29 01:08:05;;;;;;;53.15;28.92;;;9.20;99.90;;;;;;4974230;28;20047;-83
2023/04/29 01:10:40;;;;;;;48.83;28.02;;;9.10;99.90;;;;;;4952746;28;20055;-83
2023/04/29 01:13:21;;;;;;;48.95;28.60;;;9.80;99.90;;;;;;4972006;28;20065;-84
2023/04/29 01:16:23;;;;;;;54.38;29.73;;;9.20;99.90;;;;;;4935569;29;20496;-83
2023/04/29 01:18:54;;;;;;;56.78;30.17;;;9.10;99.90;;;;;;4943735;28;20069;-83
2023/04/29 01:21:21;;;;;;;57.90;29.48;;;9.90;99.90;;;;;;4972807;28;20138;-84
2023/04/29 01:23:50;;;;;;;54.00;30.67;;;9.10;99.90;;;;;;4971912;28;20443;-83
2023/04/29 01:26:16;;;;;;;57.00;30.20;;;9.10;99.90;;;;;;4973537;28;20072;-84
2023/04/29 01:28:58;;;;;;;60.10;30.40;;;9.10;99.90;;;;;;4973844;28;20047;-84
2023/04/29 01:31:37;;;;;;;57.67;30.55;;;9.00;99.90;;;;;;4971750;28;20078;-83
2023/04/29 01:34:25;;;;;;;56.47;31.20;;;9.10;99.90;;;;;;4973552;28;20057;-83
2023/04/29 01:37:16;;;;;;;54.53;29.30;;;9.20;99.90;;;;;;4972403;28;20510;-84
2023/04/29 01:39:49;;;;;;;54.97;29.45;;;9.40;99.90;;;;;;4972470;28;20051;-83
2023/04/29 01:42:28;;;;;;;47.78;25.10;;;9.00;99.90;;;;;;4972042;28;20046;-83
2023/04/29 01:44:55;;;;;;;46.85;27.55;;;9.00;99.90;;;;;;4973138;28;20059;-84
2023/04/29 01:47:22;;;;;;;52.17;28.55;;;9.80;99.90;;;;;;4973529;28;20043;-83
2023/04/29 01:49:48;;;;;;;49.85;26.73;;;9.00;99.90;;;;;;4972140;28;20055;-83
2023/04/29 01:52:14;;;;;;;49.58;28.30;;;10.00;99.90;;;;;;4972742;28;20141;-83
2023/04/29 01:54:39;;;;;;;52.60;27.63;;;8.90;99.90;;;;;;4972428;28;20194;-83
2023/04/29 01:57:05;;;;;;;52.72;26.25;;;8.90;99.90;;;;;;4971886;28;20046;-84
2023/04/29 01:59:31;;;;;;;53.55;28.58;;;8.90;99.90;;;;;;4972829;28;20120;-84
2023/04/29 02:01:57;;;;;;;52.08;27.33;;;8.90;99.90;;;;;;4976269;28;20043;-83
2023/04/29 02:04:23;;;;;;;51.53;27.17;;;8.90;99.90;;;;;;4975407;28;20042;-83
2023/04/29 02:06:51;;;;;;;54.42;27.90;;;8.90;99.90;;;;;;4971448;28;20078;-83
2023/04/29 02:09:17;;;;;;;52.05;26.70;;;8.80;99.90;;;;;;4975894;28;20034;-84
2023/04/29 02:11:43;;;;;;;51.70;26.55;;;8.80;99.90;;;;;;4976297;28;20070;-84
2023/04/29 02:14:09;;;;;;;51.35;26.50;;;8.80;99.90;;;;;;4972598;28;20047;-84
2023/04/29 02:16:35;;;;;;;50.25;27.35;;;8.80;99.90;;;;;;4972414;28;20126;-84
2023/04/29 02:19:01;;;;;;;50.58;24.75;;;8.80;99.90;;;;;;4973235;28;20519;-83
2023/04/29 02:21:26;;;;;;;54.22;27.25;;;9.20;99.90;;;;;;4972613;28;20059;-83
2023/04/29 02:23:53;;;;;;;54.53;26.90;;;8.80;99.90;;;;;;4976882;28;20050;-83
2023/04/29 02:26:19;;;;;;;49.30;26.13;;;8.70;99.90;;;;;;4975405;28;20089;-84
2023/04/29 02:28:45;;;;;;;52.80;26.33;;;8.80;99.90;;;;;;4974506;28;20047;-84
2023/04/29 02:31:11;;;;;;;55.65;26.92;;;8.70;99.90;;;;;;4976668;28;20050;-83
2023/04/29 02:33:37;;;;;;;51.58;26.42;;;8.70;99.90;;;;;;4975015;28;20054;-83
2023/04/29 02:36:02;;;;;;;47.20;24.92;;;8.70;99.90;;;;;;4975367;28;20043;-83
2023/04/29 02:38:28;;;;;;;50.10;25.63;;;8.80;99.90;;;;;;4978286;28;20054;-83
2023/04/29 02:40:54;;;;;;;45.10;24.92;;;8.70;99.90;;;;;;4995053;28;20050;-83
2023/04/29 02:43:19;;;;;;;48.75;25.20;;;8.70;99.90;;;;;;4995383;28;20077;-83
2023/04/29 02:45:45;;;;;;;51.08;26.45;;;8.80;99.90;;;;;;4978379;28;20050;-83
2023/04/29 02:48:11;;;;;;;49.03;25.20;;;8.70;99.90;;;;;;4994745;28;20414;-83
2023/04/29 02:50:36;;;;;;;51.35;25.08;;;8.70;99.90;;;;;;4995943;28;20047;-83
2023/04/29 02:53:02;;;;;;;42.08;23.58;;;8.70;99.90;;;;;;4980019;28;20047;-83
2023/04/29 02:55:27;;;;;;;41.08;24.38;;;8.70;99.90;;;;;;4995929;28;20133;-83
2023/04/29 02:57:53;;;;;;;48.20;24.45;;;8.70;99.90;;;;;;4978375;28;20042;-83
2023/04/29 03:00:19;;;;;;;45.22;22.00;;;8.70;99.90;;;;;;5007280;28;20041;-83
2023/04/29 03:02:45;;;;;;;43.65;24.15;;;8.70;99.90;;;;;;4996894;28;20050;-83
2023/04/29 03:05:10;;;;;;;44.13;23.70;;;8.70;99.90;;;;;;4996954;28;20049;-83
2023/04/29 03:07:36;;;;;;;42.53;22.92;;;8.70;99.90;;;;;;5015262;28;20074;-83
2023/04/29 03:10:02;;;;;;;42.80;22.13;;;8.70;99.90;;;;;;4995833;28;20465;-83
2023/04/29 03:12:27;;;;;;;42.50;23.83;;;8.70;99.90;;;;;;4996921;28;20060;-83
2023/04/29 03:14:53;;;;;;;41.83;22.40;;;8.70;99.90;;;;;;5014730;28;20033;-83
2023/04/29 03:17:18;;;;;;;42.25;21.88;;;8.70;99.90;;;;;;4996224;28;20093;-83
2023/04/29 03:19:44;;;;;;;39.15;20.80;;;8.60;99.90;;;;;;4997313;28;20046;-83
2023/04/29 03:22:10;;;;;;;42.40;21.60;;;8.60;99.90;;;;;;4996670;28;20042;-83
2023/04/29 03:24:37;;;;;;;41.60;22.38;;;8.70;99.90;;;;;;4996093;28;20398;-83
2023/04/29 03:27:03;;;;;;;41.78;21.27;;;8.60;99.90;;;;;;4996815;28;20074;-83
2023/04/29 03:29:29;;;;;;;37.80;20.48;;;8.60;99.90;;;;;;4996598;28;20049;-84
2023/04/29 03:31:55;;;;;;;40.50;20.88;;;8.60;99.90;;;;;;4995773;28;20089;-83
2023/04/29 03:34:21;;;;;;;44.03;21.70;;;8.60;99.90;;;;;;5023782;28;20037;-83
2023/04/29 03:36:47;;;;;;;40.05;21.25;;;8.60;99.90;;;;;;4997574;28;20054;-83
2023/04/29 03:39:13;;;;;;;42.17;21.25;;;8.60;99.90;;;;;;5013519;28;20046;-84
2023/04/29 03:41:38;;;;;;;44.53;20.50;;;9.60;99.90;;;;;;5005624;28;20060;-83
2023/04/29 03:44:04;;;;;;;41.08;21.70;;;8.60;99.90;;;;;;4996660;28;20129;-83
2023/04/29 03:46:30;;;;;;;38.08;21.40;;;8.60;99.90;;;;;;5014060;28;20108;-83
2023/04/29 03:48:56;;;;;;;42.58;21.25;;;8.60;99.90;;;;;;4996755;28;20058;-83
2023/04/29 03:51:23;;;;;;;38.63;20.00;;;8.60;99.90;;;;;;4995758;28;20042;-83
2023/04/29 03:53:49;;;;;;;41.63;20.50;;;8.60;99.90;;;;;;4996710;28;20092;-83
2023/04/29 03:56:15;;;;;;;39.92;20.73;;;9.50;99.90;;;;;;5013777;28;20120;-83
2023/04/29 03:58:41;;;;;;;39.25;19.98;;;8.60;99.90;;;;;;5013848;28;20046;-83
2023/04/29 04:01:06;;;;;;;38.10;19.08;;;9.30;99.90;;;;;;5010843;28;20045;-83
2023/04/29 04:03:32;;;;;;;42.85;19.15;;;8.50;99.90;;;;;;4976435;28;20073;-83
2023/04/29 04:05:58;;;;;;;35.85;17.85;;;8.50;99.90;;;;;;4992032;28;20462;-83
2023/04/29 04:08:23;;;;;;;35.22;17.08;;;9.30;99.90;;;;;;4994270;28;20046;-83
2023/04/29 04:10:49;;;;;;;35.63;16.77;;;8.60;99.90;;;;;;4994183;28;20038;-83
2023/04/29 04:13:15;;;;;;;32.15;15.80;;;8.50;99.90;;;;;;4992566;28;20406;-83
2023/04/29 04:15:41;;;;;;;33.38;17.52;;;8.50;99.90;;;;;;4976785;28;20482;-83
2023/04/29 04:18:07;;;;;;;35.22;17.15;;;8.50;99.90;;;;;;4994336;28;20045;-83
2023/04/29 04:20:35;;;;;;;32.85;16.30;;;8.50;99.90;;;;;;4975911;28;20046;-83
2023/04/29 04:23:01;;;;;;;33.65;16.55;;;8.40;99.90;;;;;;4993770;28;20479;-83
2023/04/29 04:25:27;;;;;;;33.17;16.63;;;8.40;99.90;;;;;;4984421;28;20068;-83
2023/04/29 04:27:53;;;;;;;31.60;16.17;;;8.40;99.90;;;;;;4994975;28;20073;-83
2023/04/29 04:30:19;;;;;;;32.75;16.05;;;8.40;99.90;;;;;;4995296;28;20119;-83
2023/04/29 04:32:45;;;;;;;32.15;15.55;;;8.40;99.90;;;;;;5013579;28;20049;-83
2023/04/29 04:35:11;;;;;;;33.88;16.05;;;8.40;99.90;;;;;;4994637;28;20499;-83
2023/04/29 04:37:36;;;;;;;33.30;16.33;;;8.40;99.90;;;;;;4995799;28;20060;-83
2023/04/29 04:40:02;;;;;;;29.48;14.93;;;8.40;99.90;;;;;;5013025;28;20030;-83
2023/04/29 04:42:28;;;;;;;29.58;15.30;;;8.40;99.90;;;;;;5012353;28;20513;-83
2023/04/29 04:44:54;;;;;;;30.15;15.63;;;8.40;99.90;;;;;;4995319;28;20042;-83
2023/04/29 04:47:19;;;;;;;31.73;15.05;;;8.40;99.90;;;;;;5012522;28;20078;-83
2023/04/29 04:49:45;;;;;;;31.98;15.23;;;8.40;99.90;;;;;;5013079;28;20548;-83
2023/04/29 04:52:11;;;;;;;27.42;13.95;;;8.40;99.90;;;;;;5013227;28;20042;-83
2023/04/29 04:54:37;;;;;;;27.02;13.43;;;8.40;99.90;;;;;;5012593;28;20041;-83
2023/04/29 04:57:04;;;;;;;24.90;12.65;;;8.40;99.90;;;;;;4956324;28;20058;-84
2023/04/29 04:59:30;;;;;;;29.27;14.02;;;8.40;99.90;;;;;;4956819;28;20050;-83
2023/04/29 05:01:56;;;;;;;26.65;13.23;;;8.40;99.90;;;;;;4974137;28;20137;-84
2023/04/29 05:04:21;;;;;;;27.73;13.63;;;8.40;99.90;;;;;;4983802;28;20038;-83
2023/04/29 05:06:47;;;;;;;29.75;14.75;;;8.40;99.90;;;;;;4997117;28;20112;-83
2023/04/29 05:09:13;;;;;;;27.40;14.48;;;8.30;99.90;;;;;;4992642;28;20491;-83
2023/04/29 05:11:38;;;;;;;25.52;13.70;;;8.30;99.90;;;;;;4999328;28;20482;-84
2023/04/29 05:14:06;;;;;;;32.72;14.18;;;8.30;99.90;;;;;;4979946;28;20043;-83
2023/04/29 05:16:32;;;;;;;24.67;12.32;;;8.30;99.90;;;;;;4993009;28;20053;-83
2023/04/29 05:18:58;;;;;;;29.75;13.90;;;9.40;99.90;;;;;;4976032;28;20054;-84
2023/04/29 05:21:23;;;;;;;26.88;13.63;;;8.40;99.90;;;;;;4993300;28;20042;-83
2023/04/29 05:23:49;;;;;;;30.30;13.93;;;8.40;99.90;;;;;;4993030;28;20049;-83
2023/04/29 05:26:15;;;;;;;25.83;12.73;;;8.40;99.90;;;;;;4992540;28;20058;-83
2023/04/29 05:28:40;;;;;;;26.25;13.65;;;8.40;99.90;;;;;;4993525;28;20038;-83
2023/04/29 05:31:06;;;;;;;27.90;12.65;;;8.40;99.90;;;;;;4992273;28;20043;-84
2023/04/29 05:33:31;;;;;;;27.60;13.55;;;8.40;99.90;;;;;;4976023;28;20038;-83
2023/04/29 05:35:57;;;;;;;27.55;13.38;;;8.40;99.90;;;;;;4992633;28;20046;-83
2023/04/29 05:38:27;;;;;;;27.92;13.80;;;8.40;99.90;;;;;;4992261;28;20096;-83
2023/04/29 05:40:56;;;;;;;29.92;12.95;;;8.40;99.90;;;;;;4975732;28;20062;-83
2023/04/29 05:43:22;;;;;;;26.85;14.00;;;8.40;99.90;;;;;;4993281;28;20514;-83
2023/04/29 05:45:48;;;;;;;27.33;13.15;;;8.40;99.90;;;;;;4992489;28;20046;-83
2023/04/29 05:48:14;;;;;;;25.83;12.55;;;8.40;99.90;;;;;;4992754;28;20042;-83
2023/04/29 05:50:39;;;;;;;24.63;12.05;;;8.50;99.90;;;;;;4975003;28;20050;-83
2023/04/29 05:53:05;;;;;;;26.73;12.50;;;8.50;99.90;;;;;;4980213;28;20049;-83
2023/04/29 05:55:31;;;;;;;26.42;11.45;;;8.50;99.90;;;;;;4993387;28;20037;-83
2023/04/29 05:57:56;;;;;;;25.73;12.18;;;8.50;99.90;;;;;;4977691;28;20468;-83
2023/04/29 06:00:22;;;;;;;29.38;12.18;;;8.50;99.90;;;;;;4979197;28;20058;-84
2023/04/29 06:02:48;;;;;;;22.67;11.40;;;8.60;99.90;;;;;;4978748;28;20049;-82
2023/04/29 06:05:14;;;;;;;26.77;12.57;;;8.60;99.90;;;;;;4978092;28;20062;-82
2023/04/29 06:07:41;;;;;;;22.17;10.85;;;8.60;99.90;;;;;;4996048;28;20042;-82
2023/04/29 06:10:07;;;;;;;25.73;11.85;;;8.60;99.90;;;;;;4996312;28;20042;-84
2023/04/29 06:12:33;;;;;;;25.88;11.70;;;8.60;99.90;;;;;;4958883;28;20129;-84
2023/04/29 06:14:59;;;;;;;27.55;11.73;;;8.60;99.90;;;;;;4959449;28;20078;-83
2023/04/29 06:17:24;;;;;;;23.08;11.43;;;9.30;99.90;;;;;;4977687;28;20053;-82
2023/04/29 06:19:50;;;;;;;25.27;12.23;;;8.70;99.90;;;;;;4978099;28;20042;-83
2023/04/29 06:22:16;;;;;;;25.63;11.60;;;8.70;99.90;;;;;;4978162;28;20506;-83
2023/04/29 06:24:41;;;;;;;26.77;11.77;;;8.80;99.90;;;;;;4996340;28;20517;-83
2023/04/29 06:27:07;;;;;;;22.80;11.90;;;8.80;99.90;;;;;;4995162;28;20050;-82
2023/04/29 06:29:33;;;;;;;23.92;12.05;;;8.80;99.90;;;;;;4978864;28;20042;-82
2023/04/29 06:31:58;;;;;;;22.92;11.32;;;9.80;99.90;;;;;;4978042;28;20049;-82
2023/04/29 06:34:24;;;;;;;33.10;13.23;;;8.90;99.90;;;;;;4978048;28;20375;-82
2023/04/29 06:36:52;;;;;;;23.02;12.07;;;9.50;99.90;;;;;;4991545;28;20092;-82
2023/04/29 06:39:18;;;;;;;27.75;12.15;;;9.00;99.90;;;;;;4997533;28;20046;-82
2023/04/29 06:41:44;;;;;;;24.20;12.32;;;9.10;99.90;;;;;;5014807;28;20397;-82
2023/04/29 06:44:09;;;;;;;24.90;12.45;;;9.10;99.90;;;;;;5017512;28;20045;-82
2023/04/29 06:46:35;;;;;;;29.40;12.80;;;9.10;99.90;;;;;;5015442;28;20092;-82
2023/04/29 06:49:00;;;;;;;29.67;12.57;;;9.20;99.90;;;;;;4996930;28;20050;-82
2023/04/29 06:51:26;;;;;;;27.40;13.75;;;9.20;99.90;;;;;;5015112;28;20041;-84
2023/04/29 06:53:52;;;;;;;24.95;12.98;;;9.30;99.90;;;;;;5014769;28;20042;-83
2023/04/29 06:56:18;;;;;;;24.42;12.57;;;9.30;99.90;;;;;;5014846;28;20600;-83
2023/04/29 06:58:43;;;;;;;24.27;12.65;;;9.30;99.90;;;;;;4997880;28;20137;-83
2023/04/29 07:01:09;;;;;;;25.33;12.15;;;9.40;99.90;;;;;;5014280;28;20030;-83
2023/04/29 07:03:35;;;;;;;25.50;12.70;;;9.50;99.90;;;;;;4999162;28;20482;-83
2023/04/29 07:06:01;;;;;;;27.60;12.43;;;10.30;99.90;;;;;;4996232;28;20044;-83
2023/04/29 07:08:27;;;;;;;24.33;12.98;;;9.70;99.90;;;;;;4995504;28;20123;-84
2023/04/29 07:10:54;;;;;;;23.63;12.65;;;10.80;99.90;;;;;;4997044;28;20490;-83
2023/04/29 07:13:20;;;;;;;25.25;12.85;;;9.80;99.90;;;;;;4997418;28;20052;-83
2023/04/29 07:15:46;;;;;;;26.52;13.20;;;10.00;99.90;;;;;;4996799;28;20136;-83
2023/04/29 07:18:12;;;;;;;23.02;13.15;;;10.10;99.90;;;;;;5014636;28;20050;-83
2023/04/29 07:20:37;;;;;;;23.65;13.50;;;10.20;99.90;;;;;;4996631;28;20049;-83
2023/04/29 07:23:03;;;;;;;23.90;13.10;;;11.40;99.90;;;;;;5013921;28;20038;-84
2023/04/29 07:25:29;;;;;;;25.08;12.57;;;10.40;99.90;;;;;;4997380;28;20490;-83
2023/04/29 07:27:55;;;;;;;20.63;11.02;;;10.90;99.90;;;;;;4996587;28;20046;-84
2023/04/29 07:30:22;;;;;;;24.08;12.32;;;10.50;99.90;;;;;;5014126;28;20403;-84
2023/04/29 07:32:48;;;;;;;23.65;11.73;;;10.50;99.90;;;;;;5014307;28;20518;-84
2023/04/29 07:35:13;;;;;;;24.90;11.77;;;11.60;99.90;;;;;;4996282;28;20100;-84
2023/04/29 07:37:42;;;;;;;21.85;11.57;;;10.60;99.90;;;;;;4985730;28;20058;-83
2023/04/29 07:40:08;;;;;;;22.67;11.88;;;10.60;99.90;;;;;;4976892;28;20065;-84
2023/04/29 07:42:34;;;;;;;21.58;11.32;;;10.70;99.90;;;;;;4977398;28;20038;-83
2023/04/29 07:45:00;;;;;;;18.30;10.50;;;10.70;99.90;;;;;;4976617;28;20050;-84
2023/04/29 07:47:26;;;;;;;18.42;10.27;;;10.80;99.90;;;;;;4994960;28;20038;-84
2023/04/29 07:49:51;;;;;;;19.35;10.18;;;10.90;99.90;;;;;;4977117;28;20043;-84
2023/04/29 07:52:17;;;;;;;20.48;10.32;;;10.90;99.90;;;;;;4993795;28;20050;-84
2023/04/29 07:54:43;;;;;;;19.52;10.05;;;10.90;99.90;;;;;;4976836;28;20045;-83
2023/04/29 07:57:08;;;;;;;18.33;9.38;;;11.00;99.90;;;;;;4993894;28;20054;-84
2023/04/29 07:59:34;;;;;;;18.40;9.95;;;11.00;99.90;;;;;;4977377;28;20382;-84
2023/04/29 08:02:00;;;;;;;18.60;9.52;;;11.10;99.90;;;;;;4976882;28;20042;-84
2023/04/29 08:04:26;;;;;;;19.42;9.70;;;12.50;99.90;;;;;;4989396;28;20049;-85
2023/04/29 08:06:51;;;;;;;16.45;9.77;;;12.50;99.90;;;;;;4971278;28;20077;-85
2023/04/29 08:09:17;;;;;;;16.85;9.45;;;11.40;99.90;;;;;;4978757;28;20172;-86
2023/04/29 08:11:44;;;;;;;18.27;9.50;;;11.50;99.90;;;;;;4993883;28;20069;-85
2023/04/29 08:14:12;;;;;;;15.60;8.95;;;11.50;99.90;;;;;;4992715;28;20046;-85
2023/04/29 08:16:38;;;;;;;16.80;9.02;;;12.60;99.90;;;;;;4976662;28;20502;-85
2023/04/29 08:19:24;;;;;;;16.08;9.13;;;11.60;99.90;;;;;;4978396;28;20125;-84
2023/04/29 08:21:50;;;;;;;16.42;9.27;;;11.60;99.90;;;;;;4976080;28;20066;-84
2023/04/29 08:24:16;;;;;;;19.95;9.32;;;11.60;99.90;;;;;;4993335;28;20525;-84
2023/04/29 08:26:42;;;;;;;18.08;9.98;;;11.80;99.90;;;;;;4975123;28;20112;-85
2023/04/29 08:29:07;;;;;;;14.38;8.50;;;11.90;99.90;;;;;;4993083;28;20050;-84
2023/04/29 08:31:33;;;;;;;17.35;8.63;;;12.00;99.90;;;;;;4993801;28;20050;-83
2023/04/29 08:33:59;;;;;;;18.30;9.27;;;12.70;99.90;;;;;;4976299;28;20065;-84
2023/04/29 08:36:27;;;;;;;18.10;9.00;;;12.10;99.90;;;;;;4976224;28;20071;-85
2023/04/29 08:38:53;;;;;;;15.45;8.20;;;12.20;99.90;;;;;;4976361;28;20061;-84
2023/04/29 08:41:19;;;;;;;17.20;8.50;;;12.30;99.90;;;;;;4992787;28;20046;-84
2023/04/29 08:43:45;;;;;;;16.60;8.63;;;12.40;99.90;;;;;;4976462;28;20042;-85
2023/04/29 08:46:11;;;;;;;16.02;8.00;;;12.50;99.90;;;;;;4993285;28;20495;-84
2023/04/29 08:48:42;;;;;;;15.40;8.45;;;13.20;99.90;;;;;;4993152;28;20114;-85
2023/04/29 08:51:12;;;;;;;15.25;8.25;;;13.00;99.90;;;;;;4993265;28;20042;-84
2023/04/29 08:53:38;;;;;;;15.05;7.72;;;12.60;99.90;;;;;;4975990;28;20099;-84
2023/04/29 08:56:11;;;;;;;13.35;7.70;;;13.10;99.90;;;;;;4987209;28;20045;-87
2023/04/29 08:58:39;;;;;;;14.13;8.43;;;12.80;99.90;;;;;;4996495;28;20026;-86
2023/04/29 09:01:08;;;;;;;14.48;7.20;;;13.50;99.90;;;;;;4993821;28;20052;-85
2023/04/29 09:04:06;;;;;;;15.77;8.38;;;13.60;99.90;;;;;;4979908;28;20042;-86
2023/04/29 09:06:32;;;;;;;15.68;8.15;;;14.20;99.90;;;;;;4995239;28;20045;-85
2023/04/29 09:09:19;;;;;;;17.48;8.73;;;13.80;99.90;;;;;;4953643;28;20509;-85
2023/04/29 09:12:00;;;;;;;17.52;8.35;;;12.70;99.90;;;;;;4995417;28;20073;-85
2023/04/29 09:14:29;;;;;;;15.07;7.88;;;14.70;99.90;;;;;;5014228;23;20049;-85
2023/04/29 09:17:42;;;;;;;16.13;8.60;;;13.50;99.90;;;;;;4991976;28;20406;-86
2023/04/29 09:20:20;;;;;;;13.38;7.63;;;13.30;99.90;;;;;;4974267;28;20042;-84
2023/04/29 09:22:52;;;;;;;15.13;8.13;;;13.20;99.90;;;;;;5062277;23;20133;-83
2023/04/29 09:25:19;;;;;;;14.18;7.93;;;13.10;99.90;;;;;;4991975;28;20073;-83
2023/04/29 09:27:45;;;;;;;15.10;7.65;;;13.00;99.90;;;;;;4992810;28;20050;-83
2023/04/29 09:30:12;;;;;;;14.48;7.43;;;13.60;99.90;;;;;;4974352;28;20136;-83
2023/04/29 09:32:38;;;;;;;14.10;7.47;;;13.40;99.90;;;;;;4997381;28;20050;-83
2023/04/29 09:35:22;;;;;;;14.40;7.10;;;13.60;99.90;;;;;;4996679;28;20042;-83
2023/04/29 09:37:48;;;;;;;12.38;7.03;;;13.90;99.90;;;;;;4978963;28;20053;-83
2023/04/29 09:40:33;;;;;;;14.70;7.38;;;13.80;99.90;;;;;;5000140;28;20044;-83
2023/04/29 09:42:59;;;;;;;13.77;7.93;;;13.90;99.90;;;;;;4978797;28;20137;-83
2023/04/29 09:45:40;;;;;;;14.52;7.45;;;14.60;99.90;;;;;;4980548;28;20051;-82
2023/04/29 09:48:07;;;;;;;15.23;7.75;;;14.60;99.90;;;;;;4998211;28;20042;-83
2023/04/29 09:50:37;;;;;;;15.10;8.15;;;14.20;99.90;;;;;;4979254;28;20081;-83
2023/04/29 09:53:08;;;;;;;12.50;6.88;;;15.50;99.90;;;;;;4979143;28;20127;-83
2023/04/29 09:55:35;;;;;;;17.33;7.60;;;14.70;99.90;;;;;;4996759;28;20050;-82
2023/04/29 09:58:01;;;;;;;13.45;7.72;;;15.70;99.90;;;;;;4977769;28;20097;-83
2023/04/29 10:00:33;;;;;;;13.40;7.57;;;15.20;99.90;;;;;;4979138;28;20049;-82
2023/04/29 10:03:00;;;;;;;13.25;7.72;;;15.40;99.90;;;;;;4979277;28;20435;-83
2023/04/29 10:05:30;;;;;;;13.57;7.70;;;15.20;99.90;;;;;;4991452;23;20111;-84
2023/04/29 10:07:57;;;;;;;14.10;7.47;;;14.90;99.90;;;;;;4974371;28;20054;-82
2023/04/29 10:10:24;;;;;;;12.77;7.40;;;14.50;99.90;;;;;;4978216;28;20198;-82
2023/04/29 10:12:53;;;;;;;14.10;7.40;;;15.10;99.90;;;;;;4977819;28;20042;-83
2023/04/29 10:15:32;;;;;;;14.23;7.32;;;14.70;99.90;;;;;;4995129;28;20042;-82
2023/04/29 10:18:20;;;;;;;13.65;6.65;;;15.60;99.90;;;;;;4995054;28;20046;-82
2023/04/29 10:20:47;;;;;;;12.50;7.00;;;16.00;99.90;;;;;;4978054;28;20061;-83
2023/04/29 10:23:14;;;;;;;12.82;7.13;;;15.60;99.90;;;;;;4978499;28;20125;-82
2023/04/29 10:25:42;;;;;;;12.48;7.15;;;15.50;99.90;;;;;;4994768;28;20074;-84
2023/04/29 10:28:15;;;;;;;13.98;7.30;;;15.60;99.90;;;;;;4978158;28;20054;-85
2023/04/29 10:30:43;;;;;;;12.65;6.93;;;16.40;99.90;;;;;;4976850;28;20505;-84
2023/04/29 10:33:11;;;;;;;13.38;7.15;;;16.20;99.90;;;;;;4994811;28;20042;-86
2023/04/29 10:35:37;;;;;;;14.23;7.82;;;16.00;99.90;;;;;;4977776;28;20051;-85
2023/04/29 10:38:13;;;;;;;12.68;7.28;;;15.70;99.90;;;;;;5009932;23;20103;-84
2023/04/29 10:40:53;;;;;;;15.70;7.60;;;15.10;99.90;;;;;;4997544;28;20046;-84
2023/04/29 10:43:23;;;;;;;13.10;7.10;;;15.20;99.90;;;;;;4997683;28;20042;-84
2023/04/29 10:45:49;;;;;;;12.40;7.13;;;16.20;99.90;;;;;;5015763;28;20088;-84
2023/04/29 10:48:15;;;;;;;14.75;7.40;;;15.50;99.90;;;;;;4997186;28;20144;-84
2023/04/29 10:50:47;;;;;;;14.68;7.25;;;15.10;99.90;;;;;;5015457;28;20045;-84
2023/04/29 10:53:14;;;;;;;14.30;7.22;;;15.30;99.90;;;;;;4996840;28;20120;-84
2023/04/29 10:55:40;;;;;;;14.00;7.38;;;15.60;99.90;;;;;;5015804;28;20045;-84
2023/04/29 10:58:36;;;;;;;11.32;6.38;;;15.70;99.90;;;;;;4997348;28;20045;-84
2023/04/29 11:01:02;;;;;;;12.98;7.10;;;16.00;99.90;;;;;;4996770;23;20077;-84
2023/04/29 11:03:59;;;;;;;13.25;7.00;;;16.30;99.90;;;;;;4978344;28;20042;-84
2023/04/29 11:06:34;;;;;;;13.00;7.40;;;16.40;99.90;;;;;;4978394;28;20034;-84
2023/04/29 11:09:24;;;;;;;13.38;7.38;;;16.40;99.90;;;;;;4997467;28;20039;-83
2023/04/29 11:12:04;;;;;;;12.40;7.47;;;15.80;99.90;;;;;;4978678;28;20054;-83
2023/04/29 11:14:37;;;;;;;14.27;7.47;;;15.40;99.90;;;;;;4995828;28;20122;-84
2023/04/29 11:17:12;;;;;;;13.38;7.20;;;15.60;99.90;;;;;;4985333;28;20101;-84
2023/04/29 11:19:48;;;;;;;14.85;7.50;;;15.60;99.90;;;;;;4979121;28;20479;-83
2023/04/29 11:22:16;;;;;;;12.98;7.18;;;16.10;99.90;;;;;;4977348;28;20434;-83
2023/04/29 11:24:49;;;;;;;13.10;7.10;;;17.20;99.90;;;;;;4978347;28;20653;-83
2023/04/29 11:27:17;;;;;;;13.00;7.30;;;16.30;99.90;;;;;;4995165;28;20061;-83
2023/04/29 11:29:48;;;;;;;14.05;7.32;;;17.10;99.90;;;;;;4994628;28;20510;-83
2023/04/29 11:32:14;;;;;;;12.85;7.53;;;16.30;99.90;;;;;;4978172;28;20096;-84
2023/04/29 11:34:41;;;;;;;13.38;6.93;;;16.30;99.90;;;;;;4979386;28;20518;-84
2023/04/29 11:37:07;;;;;;;13.07;6.20;;;16.50;99.90;;;;;;4977333;28;20050;-84
2023/04/29 11:39:35;;;;;;;12.20;6.22;;;16.60;99.90;;;;;;4977973;28;20119;-83
2023/04/29 11:42:07;;;;;;;12.13;6.28;;;16.70;99.90;;;;;;4995041;28;20173;-84
2023/04/29 11:44:37;;;;;;;11.68;6.25;;;16.90;99.90;;;;;;4977616;28;20557;-83
2023/04/29 11:47:06;;;;;;;11.80;6.60;;;17.10;99.90;;;;;;4994607;28;20526;-83
2023/04/29 11:49:33;;;;;;;12.85;6.82;;;17.30;99.90;;;;;;4994298;28;20070;-83
2023/04/29 11:51:59;;;;;;;11.05;5.72;;;17.10;99.90;;;;;;4994561;28;20057;-84
2023/04/29 11:54:25;;;;;;;11.73;5.80;;;16.70;99.90;;;;;;4976711;28;20428;-84
2023/04/29 11:56:54;;;;;;;12.27;6.40;;;16.50;99.90;;;;;;5061299;23;20078;-84
2023/04/29 11:59:21;;;;;;;11.68;5.93;;;16.90;99.90;;;;;;4975780;28;20046;-84
2023/04/29 12:01:50;;;;;;;11.85;6.00;;;17.00;99.90;;;;;;4958832;28;20413;-84
2023/04/29 12:04:16;;;;;;;13.02;6.15;;;16.80;99.90;;;;;;4958989;28;20383;-84
2023/04/29 12:06:42;;;;;;;14.40;6.25;;;16.90;99.90;;;;;;4959026;28;20128;-84
2023/04/29 12:09:08;;;;;;;13.25;5.78;;;17.40;99.90;;;;;;4975136;28;20122;-83
2023/04/29 12:11:35;;;;;;;14.38;6.28;;;17.00;99.90;;;;;;4957594;28;20546;-83
2023/04/29 12:14:04;;;;;;;12.45;5.80;;;17.00;99.90;;;;;;4974856;28;20051;-83
2023/04/29 12:16:31;;;;;;;11.27;6.18;;;16.90;99.90;;;;;;4957712;28;20058;-83
2023/04/29 12:18:58;;;;;;;11.55;5.55;;;17.10;99.90;;;;;;4956705;28;20070;-84
2023/04/29 12:21:24;;;;;;;12.15;5.88;;;17.50;99.90;;;;;;5006088;23;20046;-83
2023/04/29 12:23:50;;;;;;;10.93;5.85;;;18.30;99.90;;;;;;4994562;28;20053;-83
2023/04/29 12:26:18;;;;;;;12.13;5.93;;;18.30;99.90;;;;;;4976022;28;20137;-83
2023/04/29 12:28:43;;;;;;;12.00;5.50;;;18.10;99.90;;;;;;4994423;28;20423;-83
2023/04/29 12:31:12;;;;;;;10.50;5.55;;;17.90;99.90;;;;;;4993879;28;20042;-83
2023/04/29 12:33:43;;;;;;;10.98;5.30;;;18.10;99.90;;;;;;4993893;28;20104;-83
2023/04/29 12:36:19;;;;;;;10.23;5.63;;;18.20;99.90;;;;;;4993682;28;20046;-83
2023/04/29 12:38:47;;;;;;;11.68;5.53;;;18.40;99.90;;;;;;4997444;28;20046;-83
2023/04/29 12:41:16;;;;;;;11.57;5.45;;;18.40;99.90;;;;;;4978742;28;20046;-83